createdAt,value
2023-03-04T00:01:10.089Z,2.90
2023-03-04T00:03:57.972Z,3.00
2023-03-04T00:06:45.827Z,3.00
2023-03-04T00:09:33.721Z,3.10
2023-03-04T00:12:21.552Z,3.10
2023-03-04T00:15:10.308Z,3.20
2023-03-04T00:17:59.452Z,3.10
2023-03-04T00:20:47.486Z,2.90
2023-03-04T00:23:35.500Z,3.20
2023-03-04T00:26:23.367Z,3.20
2023-03-04T00:29:11.324Z,3.20
2023-03-04T00:31:59.331Z,3.20
2023-03-04T00:34:48.581Z,3.10
2023-03-04T00:37:36.469Z,3.30
2023-03-04T00:40:24.629Z,3.20
2023-03-04T00:43:12.516Z,3.20
2023-03-04T00:46:00.474Z,3.20
2023-03-04T00:48:48.320Z,3.20
2023-03-04T00:51:37.505Z,3.20
2023-03-04T00:54:25.377Z,3.20
2023-03-04T00:57:13.244Z,3.20
2023-03-04T01:00:01.298Z,3.20
2023-03-04T01:02:49.386Z,3.30
2023-03-04T01:05:37.248Z,3.30
2023-03-04T01:08:26.908Z,3.20
2023-03-04T01:11:14.791Z,3.20
2023-03-04T01:14:02.618Z,3.20
2023-03-04T01:16:50.790Z,3.20
2023-03-04T01:19:39.125Z,3.20
2023-03-04T01:22:27.004Z,3.20
2023-03-04T01:25:16.276Z,3.10
2023-03-04T01:28:04.433Z,3.10
2023-03-04T01:30:52.357Z,3.10
2023-03-04T01:33:40.330Z,3.10
2023-03-04T01:36:28.227Z,3.10
2023-03-04T01:39:16.502Z,3.10
2023-03-04T01:42:05.794Z,3.30
2023-03-04T01:44:54.057Z,3.10
2023-03-04T01:47:44.059Z,3.10
2023-03-04T01:50:34.513Z,3.20
2023-03-04T01:53:24.690Z,2.90
2023-03-04T01:56:16.789Z,2.90
2023-03-04T01:59:14.682Z,2.90
2023-03-04T02:02:02.761Z,2.80
2023-03-04T02:04:50.589Z,2.80
2023-03-04T02:07:39.339Z,2.80
2023-03-04T02:10:28.133Z,2.80
2023-03-04T02:13:16.475Z,2.80
2023-03-04T02:16:06.089Z,2.80
2023-03-04T02:18:54.278Z,2.80
2023-03-04T02:21:42.179Z,2.90
2023-03-04T02:24:34.753Z,2.90
2023-03-04T02:27:24.172Z,2.90
2023-03-04T02:30:20.886Z,2.90
2023-03-04T02:33:11.422Z,2.90
2023-03-04T02:35:59.269Z,2.90
2023-03-04T02:38:47.136Z,2.90
2023-03-04T02:41:35.796Z,2.90
2023-03-04T02:44:26.947Z,2.90
2023-03-04T02:47:17.784Z,2.90
2023-03-04T02:50:06.523Z,2.80
2023-03-04T02:52:54.359Z,2.80
2023-03-04T02:55:42.347Z,2.80
2023-03-04T02:58:30.242Z,2.90
2023-03-04T03:01:19.395Z,2.90
2023-03-04T03:04:07.208Z,2.90
2023-03-04T03:06:55.340Z,2.90
2023-03-04T03:09:43.184Z,3.00
2023-03-04T03:12:31.026Z,3.00
2023-03-04T03:15:19.385Z,3.00
2023-03-04T03:18:08.741Z,3.00
2023-03-04T03:20:56.610Z,3.10
2023-03-04T03:23:44.463Z,3.20
2023-03-04T03:26:32.330Z,3.10
2023-03-04T03:29:20.163Z,3.00
2023-03-04T03:32:08.062Z,3.00
2023-03-04T03:34:57.278Z,3.10
2023-03-04T03:37:45.128Z,3.10
2023-03-04T03:40:33.035Z,3.10
2023-03-04T03:43:20.971Z,3.00
2023-03-04T03:46:08.889Z,3.00
2023-03-04T03:48:56.793Z,3.00
2023-03-04T03:51:46.159Z,3.00
2023-03-04T03:54:34.012Z,3.00
2023-03-04T03:57:21.802Z,3.00
2023-03-04T04:00:11.230Z,3.00
2023-03-04T04:03:00.752Z,3.00
2023-03-04T04:05:48.718Z,2.90
2023-03-04T04:08:37.865Z,2.90
2023-03-04T04:11:25.721Z,2.90
2023-03-04T04:14:14.848Z,2.90
2023-03-04T04:17:02.686Z,2.90
2023-03-04T04:19:50.569Z,2.90
2023-03-04T04:22:38.377Z,3.00
2023-03-04T04:25:27.802Z,3.00
2023-03-04T04:28:15.672Z,3.00
2023-03-04T04:31:03.548Z,3.00
2023-03-04T04:33:51.585Z,3.00
2023-03-04T04:36:39.424Z,3.00
2023-03-04T04:39:27.470Z,3.00
2023-03-04T04:42:16.764Z,3.10
2023-03-04T04:45:05.150Z,3.00
2023-03-04T04:47:53.290Z,3.10
2023-03-04T04:50:41.088Z,3.00
2023-03-04T04:53:29.016Z,3.10
2023-03-04T04:56:19.936Z,3.10
2023-03-04T04:59:09.423Z,3.10
2023-03-04T05:01:57.246Z,3.00
2023-03-04T05:04:45.086Z,3.10
2023-03-04T05:07:32.993Z,3.00
2023-03-04T05:10:21.092Z,3.00
2023-03-04T05:13:08.873Z,3.00
2023-03-04T05:15:58.943Z,3.00
2023-03-04T05:18:47.195Z,3.00
2023-03-04T05:21:35.032Z,3.00
2023-03-04T05:24:23.021Z,3.00
2023-03-04T05:27:10.910Z,3.10
2023-03-04T05:30:00.795Z,3.10
2023-03-04T05:32:49.942Z,3.10
2023-03-04T05:35:38.426Z,3.10
2023-03-04T05:38:26.896Z,3.10
2023-03-04T05:41:14.848Z,3.10
2023-03-04T05:44:02.669Z,3.00
2023-03-04T05:46:50.565Z,3.10
2023-03-04T05:49:41.055Z,3.10
2023-03-04T05:52:28.871Z,3.10
2023-03-04T05:55:17.697Z,3.10
2023-03-04T05:58:05.835Z,3.10
2023-03-04T06:00:53.823Z,3.10
2023-03-04T06:03:43.264Z,3.10
2023-03-04T06:06:32.468Z,3.20
2023-03-04T06:09:21.120Z,3.00
2023-03-04T06:12:09.231Z,3.00
2023-03-04T06:14:57.380Z,3.10
2023-03-04T06:17:45.183Z,3.10
2023-03-04T06:20:33.125Z,3.10
2023-03-04T06:23:22.271Z,3.00
2023-03-04T06:26:12.176Z,3.10
2023-03-04T06:29:00.067Z,3.20
2023-03-04T06:31:47.944Z,3.10
2023-03-04T06:34:36.288Z,3.10
2023-03-04T06:37:24.147Z,3.20
2023-03-04T06:40:14.166Z,3.20
2023-03-04T06:43:02.019Z,3.20
2023-03-04T06:45:50.519Z,3.20
2023-03-04T06:48:38.574Z,3.20
2023-03-04T06:51:26.560Z,3.20
2023-03-04T06:54:14.376Z,3.10
2023-03-04T06:57:03.516Z,3.10
2023-03-04T06:59:51.340Z,3.10
2023-03-04T07:02:39.208Z,3.20
2023-03-04T07:05:27.451Z,3.20
2023-03-04T07:08:16.181Z,3.30
2023-03-04T07:11:04.188Z,3.30
2023-03-04T07:13:53.588Z,3.30
2023-03-04T07:16:41.730Z,3.30
2023-03-04T07:19:30.010Z,3.50
2023-03-04T07:22:17.917Z,3.40
2023-03-04T07:25:06.552Z,3.40
2023-03-04T07:27:54.715Z,3.50
2023-03-04T07:30:43.841Z,3.50
2023-03-04T07:33:31.672Z,3.50
2023-03-04T07:36:20.625Z,3.60
2023-03-04T07:39:08.842Z,3.50
2023-03-04T07:41:56.861Z,3.60
2023-03-04T07:44:44.798Z,3.40
2023-03-04T07:47:34.004Z,3.40
2023-03-04T07:50:22.446Z,3.40
2023-03-04T07:53:10.393Z,3.60
2023-03-04T07:55:58.213Z,3.50
2023-03-04T07:58:46.076Z,3.50
2023-03-04T08:01:35.676Z,3.50
2023-03-04T08:04:24.849Z,3.50
2023-03-04T08:07:12.971Z,3.60
2023-03-04T08:10:00.838Z,3.60
2023-03-04T08:12:51.704Z,3.60
2023-03-04T08:15:42.555Z,3.60
2023-03-04T08:18:30.422Z,3.60
2023-03-04T08:21:22.380Z,3.70
2023-03-04T08:24:12.092Z,3.80
2023-03-04T08:27:00.209Z,3.80
2023-03-04T08:29:47.977Z,3.80
2023-03-04T08:32:35.909Z,3.80
2023-03-04T08:35:24.050Z,3.90
2023-03-04T08:38:13.207Z,3.90
2023-03-04T08:41:01.239Z,3.90
2023-03-04T08:43:49.113Z,4.00
2023-03-04T08:46:37.473Z,4.10
2023-03-04T08:49:25.355Z,4.20
2023-03-04T08:52:13.164Z,4.40
2023-03-04T08:55:02.399Z,4.50
2023-03-04T08:57:50.308Z,4.50
2023-03-04T09:00:41.064Z,4.60
2023-03-04T09:03:29.592Z,4.60
2023-03-04T09:06:18.825Z,4.60
2023-03-04T09:09:06.762Z,4.60
2023-03-04T09:11:55.946Z,4.70
2023-03-04T09:14:43.783Z,4.80
2023-03-04T09:17:32.141Z,4.90
2023-03-04T09:20:21.007Z,4.90
2023-03-04T09:23:10.278Z,4.70
2023-03-04T09:25:58.262Z,4.60
2023-03-04T09:28:50.164Z,4.70
2023-03-04T09:31:37.975Z,4.70
2023-03-04T09:34:25.825Z,4.80
2023-03-04T09:37:13.683Z,4.90
2023-03-04T09:40:01.492Z,5.00
2023-03-04T09:42:52.838Z,5.10
2023-03-04T09:45:45.650Z,5.10
2023-03-04T09:48:44.352Z,5.20
2023-03-04T09:51:47.651Z,5.20
2023-03-04T09:55:00.279Z,5.20
2023-03-04T09:57:52.086Z,5.30
2023-03-04T10:00:43.692Z,5.30
2023-03-04T10:03:44.107Z,5.30
2023-03-04T10:06:32.794Z,5.30
2023-03-04T10:09:24.785Z,5.30
2023-03-04T10:12:15.926Z,5.20
2023-03-04T10:15:07.462Z,5.30
2023-03-04T10:18:03.362Z,5.40
2023-03-04T10:20:58.126Z,5.50
2023-03-04T10:23:47.317Z,5.60
2023-03-04T10:26:35.246Z,5.60
2023-03-04T10:29:25.351Z,5.50
2023-03-04T10:32:16.458Z,5.50
2023-03-04T10:35:08.046Z,5.50
2023-03-04T10:37:55.950Z,5.60
2023-03-04T10:40:45.887Z,5.60
2023-03-04T10:43:33.827Z,5.70
2023-03-04T10:46:24.936Z,5.80
2023-03-04T10:49:15.286Z,5.80
2023-03-04T10:52:16.311Z,5.80
2023-03-04T10:55:07.512Z,5.90
2023-03-04T10:57:58.064Z,5.90
2023-03-04T11:00:51.255Z,5.90
2023-03-04T11:03:39.334Z,5.80
2023-03-04T11:06:28.897Z,5.90
2023-03-04T11:09:24.904Z,5.80
2023-03-04T11:12:14.963Z,5.60
2023-03-04T11:15:04.012Z,5.70
2023-03-04T11:17:55.516Z,5.60
2023-03-04T11:20:46.652Z,5.70
2023-03-04T11:23:40.598Z,5.70
2023-03-04T11:26:34.839Z,5.80
2023-03-04T11:29:26.204Z,5.90
2023-03-04T11:32:19.724Z,6.10
2023-03-04T11:35:16.766Z,5.90
2023-03-04T11:38:09.953Z,5.90
2023-03-04T11:41:02.713Z,5.90
2023-03-04T11:43:52.023Z,5.90
2023-03-04T11:47:01.474Z,5.90
2023-03-04T11:50:10.052Z,5.90
2023-03-04T11:53:32.700Z,5.90
2023-03-04T11:56:33.672Z,5.90
2023-03-04T11:59:37.095Z,5.80
2023-03-04T12:02:33.136Z,5.80
2023-03-04T12:05:30.381Z,5.80
2023-03-04T12:08:35.304Z,5.80
2023-03-04T12:11:39.477Z,5.90
2023-03-04T12:14:35.425Z,5.80
2023-03-04T12:17:38.105Z,5.60
2023-03-04T12:20:49.995Z,5.60
2023-03-04T12:23:55.203Z,5.60
2023-03-04T12:26:50.584Z,5.50
2023-03-04T12:29:47.072Z,5.60
2023-03-04T12:32:43.704Z,5.60
2023-03-04T12:35:39.568Z,5.60
2023-03-04T12:38:39.660Z,5.60
2023-03-04T12:41:35.623Z,5.60
2023-03-04T12:44:24.308Z,5.60
2023-03-04T12:47:21.937Z,5.60
2023-03-04T12:50:32.107Z,5.60
2023-03-04T12:53:29.829Z,5.60
2023-03-04T12:56:26.085Z,5.50
2023-03-04T12:59:17.222Z,5.40
2023-03-04T13:02:30.811Z,5.40
2023-03-04T13:05:27.059Z,5.50
2023-03-04T13:08:27.457Z,5.50
2023-03-04T13:11:43.587Z,5.60
2023-03-04T13:14:34.519Z,5.60
2023-03-04T13:17:45.144Z,5.60
2023-03-04T13:20:38.425Z,5.70
2023-03-04T13:23:31.885Z,5.60
2023-03-04T13:26:29.330Z,5.70
2023-03-04T13:29:34.609Z,5.70
2023-03-04T13:32:38.243Z,5.70
2023-03-04T13:35:50.434Z,5.70
2023-03-04T13:38:39.734Z,5.80
2023-03-04T13:41:32.273Z,5.80
2023-03-04T13:45:00.259Z,5.90
2023-03-04T13:47:50.053Z,5.90
2023-03-04T13:50:45.761Z,5.90
2023-03-04T13:53:46.420Z,5.90
2023-03-04T13:56:37.085Z,5.70
2023-03-04T13:59:30.924Z,5.60
2023-03-04T14:02:22.627Z,5.60
2023-03-04T14:05:13.290Z,5.60
2023-03-04T14:08:19.290Z,5.50
2023-03-04T14:11:14.397Z,5.50
2023-03-04T14:14:06.049Z,5.40
2023-03-04T14:16:56.788Z,5.40
2023-03-04T14:19:46.840Z,5.50
2023-03-04T14:22:39.955Z,5.50
2023-03-04T14:25:29.051Z,5.50
2023-03-04T14:28:19.747Z,5.60
2023-03-04T14:31:12.998Z,5.60
2023-03-04T14:34:02.875Z,5.60
2023-03-04T14:36:51.043Z,5.70
2023-03-04T14:39:38.909Z,5.70
2023-03-04T14:42:36.847Z,5.70
2023-03-04T14:45:26.899Z,5.70
2023-03-04T14:48:21.379Z,5.70
2023-03-04T14:51:37.631Z,5.70
2023-03-04T14:54:35.781Z,5.70
2023-03-04T14:57:26.437Z,5.60
2023-03-04T15:00:27.064Z,5.50
2023-03-04T15:03:22.101Z,5.50
2023-03-04T15:06:19.394Z,5.50
2023-03-04T15:09:09.699Z,5.60
2023-03-04T15:12:03.802Z,5.50
2023-03-04T15:14:53.995Z,5.50
2023-03-04T15:17:45.198Z,5.50
2023-03-04T15:20:33.994Z,5.60
2023-03-04T15:23:21.894Z,5.60
2023-03-04T15:26:11.382Z,5.60
2023-03-04T15:28:59.222Z,5.60
2023-03-04T15:31:48.975Z,5.60
2023-03-04T15:34:38.253Z,5.60
2023-03-04T15:37:28.656Z,5.60
2023-03-04T15:40:22.033Z,5.60
2023-03-04T15:43:14.642Z,5.50
2023-03-04T15:46:02.484Z,5.40
2023-03-04T15:48:50.788Z,5.30
2023-03-04T15:51:40.122Z,5.30
2023-03-04T15:54:29.885Z,5.30
2023-03-04T15:57:21.552Z,5.30
2023-03-04T16:00:12.756Z,5.30
2023-03-04T16:03:01.048Z,5.20
2023-03-04T16:05:51.141Z,5.20
2023-03-04T16:08:41.687Z,5.30
2023-03-04T16:11:31.505Z,5.30
2023-03-04T16:14:19.306Z,5.30
2023-03-04T16:17:08.168Z,5.30
2023-03-04T16:19:56.034Z,5.30
2023-03-04T16:22:44.556Z,5.30
2023-03-04T16:25:33.899Z,5.30
2023-03-04T16:28:21.930Z,5.30
2023-03-04T16:31:12.150Z,5.30
2023-03-04T16:33:59.968Z,5.30
2023-03-04T16:36:47.895Z,5.30
2023-03-04T16:39:35.922Z,5.30
2023-03-04T16:42:27.023Z,5.30
2023-03-04T16:45:17.925Z,5.30
2023-03-04T16:48:06.538Z,5.20
2023-03-04T16:50:54.683Z,5.20
2023-03-04T16:53:44.263Z,5.20
2023-03-04T16:56:32.126Z,5.10
2023-03-04T16:59:21.306Z,5.00
2023-03-04T17:02:14.709Z,5.00
2023-03-04T17:05:02.593Z,4.90
2023-03-04T17:07:50.440Z,4.90
2023-03-04T17:10:38.308Z,4.80
2023-03-04T17:13:26.201Z,4.80
2023-03-04T17:16:16.087Z,4.70
2023-03-04T17:19:04.151Z,4.80
2023-03-04T17:21:52.038Z,4.80
2023-03-04T17:24:39.862Z,4.70
2023-03-04T17:27:27.650Z,4.70
2023-03-04T17:30:15.913Z,4.60
2023-03-04T17:33:05.171Z,4.70
2023-03-04T17:35:53.089Z,4.80
2023-03-04T17:38:41.466Z,4.80
2023-03-04T17:41:29.338Z,4.70
2023-03-04T17:44:17.157Z,4.80
2023-03-04T17:47:05.416Z,4.80
2023-03-04T17:49:54.661Z,4.80
2023-03-04T17:52:42.563Z,4.70
2023-03-04T17:55:30.431Z,4.70
2023-03-04T17:58:18.324Z,4.60
2023-03-04T18:01:12.172Z,4.60
2023-03-04T18:04:00.096Z,4.60
2023-03-04T18:06:49.416Z,4.60
2023-03-04T18:09:37.377Z,4.60
2023-03-04T18:12:25.220Z,4.60
2023-03-04T18:15:13.073Z,4.60
2023-03-04T18:18:01.091Z,4.60
2023-03-04T18:20:49.122Z,4.60
2023-03-04T18:23:38.285Z,4.50
2023-03-04T18:26:26.898Z,4.50
2023-03-04T18:29:14.773Z,4.50
2023-03-04T18:32:02.794Z,4.60
2023-03-04T18:34:50.838Z,4.50
2023-03-04T18:37:38.824Z,4.50
2023-03-04T18:40:28.519Z,4.50
2023-03-04T18:43:16.381Z,4.50
2023-03-04T18:46:06.122Z,4.40
2023-03-04T18:48:57.200Z,4.30
2023-03-04T18:51:45.296Z,4.40
2023-03-04T18:54:33.147Z,4.40
2023-03-04T18:57:22.430Z,4.40
2023-03-04T19:00:12.006Z,4.40
2023-03-04T19:03:04.673Z,4.30
2023-03-04T19:05:52.510Z,4.30
2023-03-04T19:08:40.525Z,4.20
2023-03-04T19:11:29.880Z,4.20
2023-03-04T19:14:19.010Z,4.30
2023-03-04T19:17:06.811Z,4.20
2023-03-04T19:19:54.696Z,4.20
2023-03-04T19:22:42.918Z,4.20
2023-03-04T19:25:30.766Z,4.20
2023-03-04T19:28:18.863Z,4.10
2023-03-04T19:31:09.674Z,4.00
2023-03-04T19:33:57.603Z,4.10
2023-03-04T19:36:45.403Z,4.00
2023-03-04T19:39:33.223Z,4.10
2023-03-04T19:42:21.021Z,4.10
2023-03-04T19:45:10.260Z,4.00
2023-03-04T19:48:00.220Z,4.00
2023-03-04T19:50:48.056Z,4.00
2023-03-04T19:53:35.871Z,4.00
2023-03-04T19:56:24.661Z,3.90
2023-03-04T19:59:12.516Z,3.90
2023-03-04T20:02:01.333Z,3.90
2023-03-04T20:04:51.586Z,3.90
2023-03-04T20:07:40.269Z,3.90
2023-03-04T20:10:31.404Z,3.90
2023-03-04T20:14:24.245Z,3.80
2023-03-04T20:17:15.126Z,3.90
2023-03-04T20:20:04.690Z,3.80
2023-03-04T20:22:52.521Z,3.80
2023-03-04T20:25:40.509Z,3.80
2023-03-04T20:28:28.643Z,3.80
2023-03-04T20:31:21.186Z,3.90
2023-03-04T20:34:09.565Z,3.80
2023-03-04T20:37:00.162Z,3.80
2023-03-04T20:39:48.129Z,3.90
2023-03-04T20:42:36.087Z,3.90
2023-03-04T20:45:24.746Z,3.90
2023-03-04T20:48:12.551Z,3.90
2023-03-04T20:51:00.456Z,3.90
2023-03-04T20:53:50.641Z,4.10
2023-03-04T20:56:39.315Z,3.90
2023-03-04T20:59:27.437Z,4.00
2023-03-04T21:02:17.233Z,4.00
2023-03-04T21:05:05.756Z,3.90
2023-03-04T21:07:55.266Z,3.90
2023-03-04T21:10:44.402Z,3.90
2023-03-04T21:13:32.818Z,3.90
2023-03-04T21:16:22.261Z,3.90
2023-03-04T21:19:16.664Z,3.90
2023-03-04T21:22:05.433Z,3.90
2023-03-04T21:24:53.881Z,3.90
2023-03-04T21:27:43.242Z,3.90
2023-03-04T21:30:31.026Z,3.90
2023-03-04T21:33:20.191Z,4.00
2023-03-04T21:36:08.438Z,3.90
2023-03-04T21:38:56.249Z,3.80
2023-03-04T21:41:44.179Z,3.80
2023-03-04T21:44:45.493Z,3.80
2023-03-04T21:47:36.262Z,3.90
2023-03-04T21:50:24.012Z,3.90
2023-03-04T21:53:11.890Z,3.90
2023-03-04T21:55:59.857Z,3.90
2023-03-04T21:58:47.663Z,4.00
2023-03-04T22:01:36.950Z,4.00
2023-03-04T22:04:24.779Z,3.90
2023-03-04T22:07:12.823Z,3.90
2023-03-04T22:10:02.905Z,3.80
2023-03-04T22:12:50.761Z,3.70
2023-03-04T22:15:39.393Z,3.60
2023-03-04T22:18:29.353Z,3.60
2023-03-04T22:21:19.812Z,3.60
2023-03-04T22:24:08.020Z,3.50
2023-03-04T22:26:56.859Z,3.40
2023-03-04T22:29:45.814Z,3.40
2023-03-04T22:32:33.654Z,3.40
2023-03-04T22:35:22.833Z,3.40
2023-03-04T22:38:10.744Z,3.40
2023-03-04T22:40:58.587Z,3.50
2023-03-04T22:43:46.985Z,3.60
2023-03-04T22:46:37.985Z,3.40
2023-03-04T22:49:25.824Z,3.40
2023-03-04T22:52:15.413Z,3.40
2023-03-04T22:55:05.946Z,3.40
2023-03-04T22:57:54.306Z,3.30
2023-03-04T23:00:42.647Z,3.30
2023-03-04T23:03:31.249Z,3.30
2023-03-04T23:06:20.624Z,3.30
2023-03-04T23:09:09.821Z,3.20
2023-03-04T23:11:57.833Z,3.20
2023-03-04T23:14:45.690Z,3.30
2023-03-04T23:17:33.890Z,3.30
2023-03-04T23:20:22.710Z,3.20
2023-03-04T23:23:10.808Z,3.20
2023-03-04T23:26:00.088Z,3.20
2023-03-04T23:28:48.250Z,3.20
2023-03-04T23:31:36.550Z,3.20
2023-03-04T23:34:24.433Z,3.20
2023-03-04T23:37:12.292Z,3.20
2023-03-04T23:40:00.275Z,3.30
2023-03-04T23:42:49.569Z,3.30
2023-03-04T23:45:39.140Z,3.30
2023-03-04T23:48:26.985Z,3.30
2023-03-04T23:51:15.837Z,3.30
2023-03-04T23:54:03.665Z,3.40
2023-03-04T23:56:51.553Z,3.20
2023-03-04T23:59:40.716Z,3.30
